This is the latest recevied weather packets stored in our database for station/object DB0TGO-13. If no packets are shown the sender has not sent any weather packets the latest 1 day(s).
| Time | Temp. | Humidity | Pressure | Rain* | Wind** | Luminosity | Snow |
|---|---|---|---|---|---|---|---|
| 1836274678 | 15.56° C | 84% | 1012.9 hPa | - | 1.34 m/s, 200° | - | - |
| 1778013902 | 13.89° C | 83% | 1002.1 hPa | - | 4.92 m/s, 40° | - | - |
| 1778013002 | 13.89° C | 83% | 1002.1 hPa | - | 4.92 m/s, 40° | - | - |
| 1778012102 | 14.44° C | 81% | 1002.2 hPa | - | 4.92 m/s, 40° | - | - |
| 1778011202 | 14.44° C | 81% | 1002.2 hPa | - | 4.47 m/s, 40° | - | - |
| 1778010302 | 15° C | 79% | 1002 hPa | - | 4.02 m/s, 40° | - | - |
| 1778009403 | 15° C | 79% | 1002 hPa | - | 4.02 m/s, 40° | - | - |
| 1778008502 | 15.56° C | 78% | 1001.8 hPa | - | 4.02 m/s, 40° | - | - |
| 1778007602 | 15.56° C | 78% | 1001.8 hPa | - | 4.47 m/s, 60° | - | - |
| 1778006702 | 16.67° C | 74% | 1001.9 hPa | - | 4.47 m/s, 60° | - | - |
| 1778005802 | 16.67° C | 74% | 1001.9 hPa | - | 3.58 m/s, 40° | - | - |
| 1778004902 | 16.67° C | 74% | 1001.9 hPa | - | 3.58 m/s, 40° | - | - |
| 1778004002 | 16.67° C | 74% | 1001.9 hPa | - | 3.58 m/s, 50° | - | - |
| 1778003102 | 17.22° C | 72% | 1002 hPa | - | 3.58 m/s, 50° | - | - |
| 1778002203 | 17.22° C | 72% | 1002 hPa | - | 3.13 m/s, 30° | - | - |
| 1778001302 | 17.78° C | 70% | 1002.1 hPa | - | 3.13 m/s, 30° | - | - |
| 1778000402 | 17.78° C | 70% | 1002.1 hPa | - | 2.68 m/s, 20° | - | - |
| 1777999502 | 17.78° C | 70% | 1002.3 hPa | - | 3.58 m/s, 360° | - | - |
| 1777998602 | 17.78° C | 70% | 1002.3 hPa | - | 3.58 m/s, 360° | - | - |
| 1777997702 | 17.78° C | 69% | 1002.4 hPa | - | 3.58 m/s, 360° | - | - |
| 1777996802 | 17.78° C | 69% | 1002.4 hPa | - | 3.13 m/s, 350° | - | - |
| 1777995902 | 18.33° C | 68% | 1002.4 hPa | - | 3.58 m/s, 360° | - | - |
| 1777995002 | 18.33° C | 68% | 1002.4 hPa | - | 3.58 m/s, 360° | - | - |
| 1777994102 | 19.44° C | 60% | 1002.4 hPa | - | 1.79 m/s, 330° | - | - |
| 1777993202 | 19.44° C | 60% | 1002.4 hPa | - | 1.79 m/s, 330° | - | - |
* Rain since midnight (hover to see other rain measurements)
** Current wind speed in m/s (hover to see current wind gust speed)